createdAt,value
2023-02-05T00:00:15.828Z,-1.8
2023-02-05T00:01:24.024Z,-1.8
2023-02-05T00:02:33.906Z,-1.9
2023-02-05T00:03:43.939Z,-1.9
2023-02-05T00:04:53.771Z,-1.8
2023-02-05T00:06:01.455Z,-1.9
2023-02-05T00:07:11.759Z,-1.8
2023-02-05T00:08:21.835Z,-1.7
2023-02-05T00:09:33.006Z,-1.7
2023-02-05T00:10:43.943Z,-1.9
2023-02-05T00:11:55.338Z,-1.8
2023-02-05T00:13:05.500Z,-1.7
2023-02-05T00:14:16.346Z,-1.7
2023-02-05T00:15:25.903Z,-1.8
2023-02-05T00:16:35.031Z,-1.8
2023-02-05T00:17:43.134Z,-2.1
2023-02-05T00:18:51.183Z,-2.1
2023-02-05T00:20:02.154Z,-2
2023-02-05T00:21:10.234Z,-1.8
2023-02-05T00:22:20.225Z,-2
2023-02-05T00:23:29.177Z,-2
2023-02-05T00:24:38.990Z,-2
2023-02-05T00:25:48.061Z,-1.8
2023-02-05T00:26:56.442Z,-1.7
2023-02-05T00:28:04.782Z,-1.8
2023-02-05T00:29:13.245Z,-2.2
2023-02-05T00:30:23.966Z,-2.3
2023-02-05T00:31:34.482Z,-2.1
2023-02-05T00:32:43.473Z,-2
2023-02-05T00:33:54.564Z,-1.7
2023-02-05T00:35:05.609Z,-1.8
2023-02-05T00:36:16.336Z,-1.8
2023-02-05T00:37:25.305Z,-1.9
2023-02-05T00:38:34.797Z,-1.9
2023-02-05T00:39:45.046Z,-1.8
2023-02-05T00:40:55.202Z,-1.8
2023-02-05T00:42:06.532Z,-1.9
2023-02-05T00:43:16.235Z,-1.9
2023-02-05T00:44:24.059Z,-1.9
2023-02-05T00:45:34.021Z,-1.9
2023-02-05T00:46:46.136Z,-1.8
2023-02-05T00:47:55.768Z,-1.9
2023-02-05T00:49:06.017Z,-2
2023-02-05T00:50:14.705Z,-2
2023-02-05T00:51:23.747Z,-1.8
2023-02-05T00:52:33.125Z,-1.8
2023-02-05T00:53:41.296Z,-1.9
2023-02-05T00:54:50.863Z,-2
2023-02-05T00:55:59.390Z,-1.8
2023-02-05T00:57:08.014Z,-1.9
2023-02-05T00:58:15.638Z,-2
2023-02-05T00:59:25.622Z,-2.1
2023-02-05T01:00:34.671Z,-2.1
2023-02-05T01:01:42.671Z,-2.1
2023-02-05T01:02:51.931Z,-2
2023-02-05T01:04:02.410Z,-1.9
2023-02-05T01:05:12.330Z,-1.8
2023-02-05T01:06:21.770Z,-1.8
2023-02-05T01:07:30.934Z,-1.8
2023-02-05T01:08:40.587Z,-1.6
2023-02-05T01:09:48.568Z,-1.7
2023-02-05T01:10:58.523Z,-1.8
2023-02-05T01:12:07.248Z,-2
2023-02-05T01:13:18.308Z,-2
2023-02-05T01:14:27.399Z,-1.8
2023-02-05T01:15:35.883Z,-1.9
2023-02-05T01:16:44.559Z,-2.1
2023-02-05T01:17:53.569Z,-1.8
2023-02-05T01:19:02.053Z,-1.9
2023-02-05T01:20:10.793Z,-1.9
2023-02-05T01:21:20.254Z,-1.9
2023-02-05T01:22:29.548Z,-1.7
2023-02-05T01:23:38.209Z,-1.7
2023-02-05T01:24:47.050Z,-1.6
2023-02-05T01:25:57.069Z,-1.8
2023-02-05T01:27:04.640Z,-1.9
2023-02-05T01:28:13.936Z,-1.9
2023-02-05T01:29:23.876Z,-1.9
2023-02-05T01:30:33.391Z,-1.7
2023-02-05T01:31:43.067Z,-1.6
2023-02-05T01:32:52.194Z,-1.6
2023-02-05T01:34:02.282Z,-1.6
2023-02-05T01:35:12.230Z,-1.7
2023-02-05T01:36:21.257Z,-2
2023-02-05T01:37:31.240Z,-2
2023-02-05T01:38:40.728Z,-1.9
2023-02-05T01:39:52.167Z,-1.8
2023-02-05T01:41:00.223Z,-1.8
2023-02-05T01:42:10.426Z,-1.9
2023-02-05T01:43:25.966Z,-1.9
2023-02-05T01:44:35.445Z,-1.9
2023-02-05T01:45:45.078Z,-1.9
2023-02-05T01:47:05.145Z,-1.8
2023-02-05T01:48:14.434Z,-2
2023-02-05T01:49:23.212Z,-1.9
2023-02-05T01:50:36.263Z,-1.9
2023-02-05T01:51:47.946Z,-1.8
2023-02-05T01:52:58.156Z,-1.8
2023-02-05T01:54:12.285Z,-1.7
2023-02-05T01:55:20.347Z,-1.7
2023-02-05T01:56:28.792Z,-1.6
2023-02-05T01:57:39.906Z,-1.7
2023-02-05T01:58:49.371Z,-1.6
2023-02-05T01:59:59.967Z,-1.5
2023-02-05T02:01:08.194Z,-1.4
2023-02-05T02:02:15.399Z,-1.3
2023-02-05T02:03:25.726Z,-1.2
2023-02-05T02:04:33.386Z,-1.2
2023-02-05T02:05:45.039Z,-1.1
2023-02-05T02:06:53.830Z,-1.2
2023-02-05T02:08:03.154Z,-1.3
2023-02-05T02:09:12.702Z,-1.5
2023-02-05T02:10:23.237Z,-1.4
2023-02-05T02:11:33.147Z,-1.6
2023-02-05T02:12:42.417Z,-1.6
2023-02-05T02:13:51.358Z,-1.6
2023-02-05T02:15:01.446Z,-1.5
2023-02-05T02:16:11.613Z,-1.7
2023-02-05T02:17:22.569Z,-1.6
2023-02-05T02:18:31.822Z,-1.6
2023-02-05T02:19:41.148Z,-1.6
2023-02-05T02:20:55.973Z,-1.5
2023-02-05T02:22:09.864Z,-1.6
2023-02-05T02:23:32.045Z,-1.5
2023-02-05T02:24:46.360Z,-1.4
2023-02-05T02:26:06.193Z,-1.6
2023-02-05T02:27:24.256Z,-1.6
2023-02-05T02:28:41.356Z,-1.5
2023-02-05T02:29:52.761Z,-1.5
2023-02-05T02:31:08.360Z,-1.4
2023-02-05T02:32:20.354Z,-1.4
2023-02-05T02:33:28.460Z,-1.3
2023-02-05T02:34:39.836Z,-1.3
2023-02-05T02:35:53.813Z,-1.3
2023-02-05T02:37:10.084Z,-1.3
2023-02-05T02:38:26.734Z,-1.3
2023-02-05T02:39:38.144Z,-1.3
2023-02-05T02:40:56.624Z,-1.3
2023-02-05T02:42:12.404Z,-1.3
2023-02-05T02:43:23.541Z,-1.4
2023-02-05T02:44:37.353Z,-1.4
2023-02-05T02:45:45.894Z,-1.4
2023-02-05T02:46:57.221Z,-1.5
2023-02-05T02:48:08.056Z,-1.5
2023-02-05T02:49:15.817Z,-1.6
2023-02-05T02:50:32.027Z,-1.7
2023-02-05T02:51:43.130Z,-1.9
2023-02-05T02:52:53.284Z,-1.8
2023-02-05T02:54:01.958Z,-1.7
2023-02-05T02:55:11.581Z,-1.8
2023-02-05T02:56:20.050Z,-2.1
2023-02-05T02:57:29.856Z,-2
2023-02-05T02:58:40.174Z,-1.8
2023-02-05T02:59:53.913Z,-1.8
2023-02-05T03:01:01.644Z,-1.7
2023-02-05T03:02:10.022Z,-1.6
2023-02-05T03:03:19.877Z,-1.6
2023-02-05T03:04:29.374Z,-1.6
2023-02-05T03:05:47.423Z,-1.8
2023-02-05T03:06:57.004Z,-1.8
2023-02-05T03:08:05.016Z,-1.6
2023-02-05T03:09:15.893Z,-1.7
2023-02-05T03:10:32.719Z,-1.7
2023-02-05T03:11:48.261Z,-1.8
2023-02-05T03:12:57.037Z,-1.8
2023-02-05T03:14:06.500Z,-1.7
2023-02-05T03:15:16.453Z,-1.7
2023-02-05T03:16:27.877Z,-1.6
2023-02-05T03:17:38.067Z,-1.6
2023-02-05T03:18:46.437Z,-1.5
2023-02-05T03:19:56.273Z,-1.5
2023-02-05T03:21:04.346Z,-1.5
2023-02-05T03:22:12.687Z,-1.4
2023-02-05T03:23:22.044Z,-1.4
2023-02-05T03:24:32.632Z,-1.6
2023-02-05T03:25:42.690Z,-1.8
2023-02-05T03:26:50.764Z,-1.7
2023-02-05T03:27:58.685Z,-1.9
2023-02-05T03:29:06.870Z,-1.8
2023-02-05T03:30:16.732Z,-1.7
2023-02-05T03:31:25.992Z,-1.7
2023-02-05T03:32:39.445Z,-2
2023-02-05T03:33:56.498Z,-2
2023-02-05T03:35:15.270Z,-1.9
2023-02-05T03:36:33.267Z,-1.9
2023-02-05T03:37:52.143Z,-1.8
2023-02-05T03:39:09.715Z,-1.8
2023-02-05T03:40:24.721Z,-2.1
2023-02-05T03:41:39.575Z,-2.1
2023-02-05T03:42:57.107Z,-2.1
2023-02-05T03:44:10.759Z,-1.9
2023-02-05T03:45:20.725Z,-1.9
2023-02-05T03:46:33.373Z,-2.2
2023-02-05T03:47:48.775Z,-1.9
2023-02-05T03:49:08.615Z,-2
2023-02-05T03:50:26.106Z,-2
2023-02-05T03:51:38.347Z,-2.2
2023-02-05T03:52:52.728Z,-2.1
2023-02-05T03:54:12.114Z,-2.1
2023-02-05T03:55:31.729Z,-2
2023-02-05T03:56:43.900Z,-1.9
2023-02-05T03:58:03.196Z,-2
2023-02-05T03:59:18.115Z,-1.9
2023-02-05T04:00:28.127Z,-1.9
2023-02-05T04:01:38.020Z,-1.9
2023-02-05T04:02:46.233Z,-2
2023-02-05T04:03:56.175Z,-2
2023-02-05T04:05:04.718Z,-1.9
2023-02-05T04:06:14.279Z,-1.9
2023-02-05T04:07:23.261Z,-1.9
2023-02-05T04:08:31.244Z,-1.9
2023-02-05T04:09:41.571Z,-1.9
2023-02-05T04:10:51.823Z,-1.9
2023-02-05T04:12:00.451Z,-2
2023-02-05T04:13:09.656Z,-2
2023-02-05T04:14:17.738Z,-2
2023-02-05T04:15:26.100Z,-2.1
2023-02-05T04:16:35.047Z,-2.1
2023-02-05T04:17:42.506Z,-2.1
2023-02-05T04:18:52.099Z,-2.1
2023-02-05T04:20:01.041Z,-2.1
2023-02-05T04:21:10.468Z,-2.1
2023-02-05T04:22:19.709Z,-2.2
2023-02-05T04:23:29.108Z,-2.1
2023-02-05T04:24:36.966Z,-2.2
2023-02-05T04:25:45.880Z,-2.2
2023-02-05T04:26:56.634Z,-2.2
2023-02-05T04:28:05.612Z,-2.2
2023-02-05T04:29:15.685Z,-2.3
2023-02-05T04:30:25.480Z,-2.3
2023-02-05T04:31:35.167Z,-2.3
2023-02-05T04:32:44.683Z,-2.3
2023-02-05T04:33:54.662Z,-2.3
2023-02-05T04:35:03.694Z,-2.3
2023-02-05T04:36:12.742Z,-2.3
2023-02-05T04:37:22.233Z,-2.4
2023-02-05T04:38:30.165Z,-2.3
2023-02-05T04:39:39.777Z,-2.4
2023-02-05T04:40:48.603Z,-2.4
2023-02-05T04:41:58.572Z,-2.4
2023-02-05T04:43:07.233Z,-2.4
2023-02-05T04:44:18.175Z,-2.5
2023-02-05T04:45:26.505Z,-2.5
2023-02-05T04:46:34.585Z,-2.5
2023-02-05T04:47:43.753Z,-2.5
2023-02-05T04:48:52.633Z,-2.5
2023-02-05T04:50:01.627Z,-2.5
2023-02-05T04:51:10.200Z,-2.5
2023-02-05T04:52:19.286Z,-2.5
2023-02-05T04:53:28.298Z,-2.6
2023-02-05T04:54:39.660Z,-2.6
2023-02-05T04:55:50.788Z,-2.6
2023-02-05T04:57:01.441Z,-2.7
2023-02-05T04:58:11.062Z,-2.7
2023-02-05T04:59:20.688Z,-2.7
2023-02-05T05:00:29.901Z,-2.7
2023-02-05T05:01:38.836Z,-2.7
2023-02-05T05:02:50.713Z,-2.7
2023-02-05T05:03:59.821Z,-2.7
2023-02-05T05:05:08.665Z,-2.7
2023-02-05T05:06:18.308Z,-2.7
2023-02-05T05:07:28.338Z,-2.7
2023-02-05T05:08:38.424Z,-2.6
2023-02-05T05:09:48.505Z,-2.6
2023-02-05T05:10:57.904Z,-2.7
2023-02-05T05:12:07.142Z,-2.6
2023-02-05T05:13:16.484Z,-2.6
2023-02-05T05:14:27.996Z,-2.6
2023-02-05T05:15:37.254Z,-2.6
2023-02-05T05:16:45.802Z,-2.7
2023-02-05T05:17:55.245Z,-2.6
2023-02-05T05:19:06.276Z,-2.6
2023-02-05T05:20:18.156Z,-2.5
2023-02-05T05:21:27.407Z,-2.5
2023-02-05T05:22:36.483Z,-2.5
2023-02-05T05:23:46.962Z,-2.5
2023-02-05T05:24:56.761Z,-2.5
2023-02-05T05:26:07.357Z,-2.5
2023-02-05T05:27:16.977Z,-2.5
2023-02-05T05:28:28.640Z,-2.5
2023-02-05T05:29:39.565Z,-2.5
2023-02-05T05:30:48.706Z,-2.5
2023-02-05T05:31:58.467Z,-2.5
2023-02-05T05:33:08.370Z,-2.5
2023-02-05T05:34:17.136Z,-2.5
2023-02-05T05:35:25.273Z,-2.5
2023-02-05T05:36:32.984Z,-2.5
2023-02-05T05:37:50.602Z,-2.5
2023-02-05T05:38:54.789Z,-2.5
2023-02-05T05:40:02.538Z,-2.5
2023-02-05T05:41:18.173Z,-2.5
2023-02-05T05:42:33.898Z,-2.5
2023-02-05T05:43:48.302Z,-2.5
2023-02-05T05:44:59.694Z,-2.5
2023-02-05T05:46:08.601Z,-2.5
2023-02-05T05:47:19.235Z,-2.5
2023-02-05T05:48:27.582Z,-2.5
2023-02-05T05:49:37.869Z,-2.5
2023-02-05T05:50:45.564Z,-2.5
2023-02-05T05:51:53.086Z,-2.5
2023-02-05T05:53:02.974Z,-2.5
2023-02-05T05:54:12.462Z,-2.5
2023-02-05T05:55:20.844Z,-2.6
2023-02-05T05:56:29.659Z,-2.6
2023-02-05T05:57:40.304Z,-2.6
2023-02-05T05:58:49.145Z,-2.6
2023-02-05T05:59:57.576Z,-2.6
2023-02-05T06:01:06.770Z,-2.6
2023-02-05T06:02:16.540Z,-2.6
2023-02-05T06:03:26.406Z,-2.5
2023-02-05T06:04:36.802Z,-2.5
2023-02-05T06:05:45.407Z,-2.6
2023-02-05T06:06:55.590Z,-2.6
2023-02-05T06:08:05.338Z,-2.5
2023-02-05T06:09:13.833Z,-2.5
2023-02-05T06:10:23.901Z,-2.5
2023-02-05T06:11:32.199Z,-2.5
2023-02-05T06:12:41.944Z,-2.5
2023-02-05T06:13:50.399Z,-2.6
2023-02-05T06:14:59.495Z,-2.5
2023-02-05T06:16:12.010Z,-2.6
2023-02-05T06:17:22.278Z,-2.7
2023-02-05T06:18:31.967Z,-2.8
2023-02-05T06:19:40.449Z,-3.1
2023-02-05T06:20:48.968Z,-3
2023-02-05T06:21:57.170Z,-2.9
2023-02-05T06:23:06.655Z,-3
2023-02-05T06:24:15.174Z,-2.8
2023-02-05T06:25:24.874Z,-2.7
2023-02-05T06:26:34.093Z,-2.7
2023-02-05T06:27:43.849Z,-2.9
2023-02-05T06:28:54.584Z,-2.9
2023-02-05T06:30:03.664Z,-3.1
2023-02-05T06:31:13.164Z,-3
2023-02-05T06:32:22.428Z,-3
2023-02-05T06:33:32.123Z,-2.9
2023-02-05T06:34:42.725Z,-2.8
2023-02-05T06:35:51.561Z,-2.9
2023-02-05T06:36:59.632Z,-2.9
2023-02-05T06:38:12.625Z,-2.9
2023-02-05T06:39:21.836Z,-2.9
2023-02-05T06:40:30.559Z,-2.9
2023-02-05T06:41:38.018Z,-2.8
2023-02-05T06:42:46.836Z,-2.8
2023-02-05T06:43:54.280Z,-2.9
2023-02-05T06:45:04.225Z,-2.9
2023-02-05T06:46:14.806Z,-2.9
2023-02-05T06:47:23.988Z,-3
2023-02-05T06:48:33.937Z,-3
2023-02-05T06:49:44.673Z,-3.2
2023-02-05T06:50:54.573Z,-3.2
2023-02-05T06:52:04.367Z,-3
2023-02-05T06:53:13.758Z,-3
2023-02-05T06:54:22.652Z,-2.9
2023-02-05T06:55:32.753Z,-2.9
2023-02-05T06:56:40.954Z,-2.8
2023-02-05T06:57:49.981Z,-3
2023-02-05T06:58:58.708Z,-3
2023-02-05T07:00:08.922Z,-3
2023-02-05T07:01:19.296Z,-2.9
2023-02-05T07:02:28.335Z,-3
2023-02-05T07:03:36.458Z,-3
2023-02-05T07:04:44.887Z,-2.9
2023-02-05T07:05:54.104Z,-3
2023-02-05T07:07:03.539Z,-3
2023-02-05T07:08:10.845Z,-2.9
2023-02-05T07:09:21.911Z,-2.9
2023-02-05T07:10:30.372Z,-3
2023-02-05T07:11:38.883Z,-3
2023-02-05T07:12:48.342Z,-2.9
2023-02-05T07:13:56.253Z,-2.9
2023-02-05T07:15:09.231Z,-2.9
2023-02-05T07:16:19.436Z,-2.9
2023-02-05T07:17:29.639Z,-2.8
2023-02-05T07:18:37.710Z,-2.9
2023-02-05T07:19:47.714Z,-2.9
2023-02-05T07:20:57.456Z,-2.9
2023-02-05T07:22:05.670Z,-2.9
2023-02-05T07:23:14.699Z,-3
2023-02-05T07:24:24.504Z,-3.1
2023-02-05T07:25:32.153Z,-3
2023-02-05T07:26:44.431Z,-3.1
2023-02-05T07:27:52.940Z,-3
2023-02-05T07:29:03.101Z,-2.9
2023-02-05T07:30:12.404Z,-2.9
2023-02-05T07:31:20.868Z,-2.9
2023-02-05T07:32:29.860Z,-2.9
2023-02-05T07:33:38.287Z,-2.8
2023-02-05T07:34:47.100Z,-2.8
2023-02-05T07:35:57.115Z,-2.8
2023-02-05T07:37:08.226Z,-2.8
2023-02-05T07:38:16.714Z,-2.8
2023-02-05T07:39:25.981Z,-2.8
2023-02-05T07:40:33.376Z,-2.8
2023-02-05T07:41:42.722Z,-2.7
2023-02-05T07:42:53.404Z,-2.7
2023-02-05T07:44:03.304Z,-2.7
2023-02-05T07:45:15.902Z,-2.6
2023-02-05T07:46:25.077Z,-2.6
2023-02-05T07:47:36.104Z,-2.5
2023-02-05T07:48:44.785Z,-2.5
2023-02-05T07:49:55.676Z,-2.3
2023-02-05T07:51:04.906Z,-2.3
2023-02-05T07:52:12.364Z,-2.2
2023-02-05T07:53:23.532Z,-2
2023-02-05T07:54:31.749Z,-2.1
2023-02-05T07:55:40.110Z,-2.2
2023-02-05T07:56:51.386Z,-2.1
2023-02-05T07:58:02.358Z,-2.1
2023-02-05T07:59:10.214Z,-2
2023-02-05T08:00:20.091Z,-1.9
2023-02-05T08:01:29.130Z,-2
2023-02-05T08:02:38.416Z,-1.8
2023-02-05T08:03:50.123Z,-1.8
2023-02-05T08:05:00.791Z,-1.7
2023-02-05T08:06:09.722Z,-1.8
2023-02-05T08:07:20.584Z,-1.8
2023-02-05T08:08:30.544Z,-1.8
2023-02-05T08:09:40.026Z,-1.9
2023-02-05T08:10:47.363Z,-1.8
2023-02-05T08:12:07.793Z,-2
2023-02-05T08:13:19.156Z,-1.9
2023-02-05T08:14:29.899Z,-1.9
2023-02-05T08:15:42.475Z,-1.8
2023-02-05T08:16:52.480Z,-1.8
2023-02-05T08:18:02.599Z,-1.7
2023-02-05T08:19:14.491Z,-1.8
2023-02-05T08:20:24.831Z,-1.7
2023-02-05T08:21:35.749Z,-1.7
2023-02-05T08:22:44.117Z,-1.8
2023-02-05T08:23:51.959Z,-1.7
2023-02-05T08:25:02.003Z,-1.7
2023-02-05T08:26:10.228Z,-1.5
2023-02-05T08:27:19.987Z,-1.7
2023-02-05T08:28:29.868Z,-1.5
2023-02-05T08:29:39.276Z,-1.4
2023-02-05T08:30:49.157Z,-1.5
2023-02-05T08:31:59.741Z,-1.4
2023-02-05T08:33:09.364Z,-1.2
2023-02-05T08:34:21.027Z,-1.3
2023-02-05T08:35:29.104Z,-1.3
2023-02-05T08:36:36.299Z,-1.5
2023-02-05T08:37:45.882Z,-1.5
2023-02-05T08:38:56.115Z,-1.6
2023-02-05T08:40:07.457Z,-1.5
2023-02-05T08:41:18.174Z,-1.6
2023-02-05T08:42:28.201Z,-1.4
2023-02-05T08:43:37.706Z,-1.4
2023-02-05T08:44:45.169Z,-1.6
2023-02-05T08:45:55.564Z,-1.5
2023-02-05T08:47:06.338Z,-1.7
2023-02-05T08:48:16.225Z,-1.7
2023-02-05T08:49:26.658Z,-1.5
2023-02-05T08:50:37.623Z,-1.5
2023-02-05T08:51:45.953Z,-1.5
2023-02-05T08:52:52.974Z,-1.6
2023-02-05T08:54:00.238Z,-1.4
2023-02-05T08:55:07.318Z,-1.6
2023-02-05T08:56:14.492Z,-1.6
2023-02-05T08:57:22.050Z,-1.8
2023-02-05T08:58:32.160Z,-1.6
2023-02-05T08:59:39.267Z,-1.6
2023-02-05T09:00:46.477Z,-1.5
2023-02-05T09:01:53.524Z,-1.6
2023-02-05T09:03:00.740Z,-1.7
2023-02-05T09:04:07.972Z,-1.9
2023-02-05T09:05:18.428Z,-1.8
2023-02-05T09:06:25.683Z,-1.8
2023-02-05T09:07:32.786Z,-1.7
2023-02-05T09:08:39.771Z,-1.8
2023-02-05T09:09:46.973Z,-1.8
2023-02-05T09:10:54.141Z,-1.8
2023-02-05T09:12:01.417Z,-1.8
2023-02-05T09:13:09.157Z,-1.8
2023-02-05T09:14:16.642Z,-1.8
2023-02-05T09:15:24.058Z,-1.7
2023-02-05T09:16:31.284Z,-1.5
2023-02-05T09:17:38.305Z,-1.4
2023-02-05T09:18:45.399Z,-1.3
2023-02-05T09:19:52.704Z,-1.5
2023-02-05T09:20:59.804Z,-1.7
2023-02-05T09:22:07.355Z,-1.5
2023-02-05T09:23:14.516Z,-1.5
2023-02-05T09:24:21.537Z,-1.6
2023-02-05T09:25:28.816Z,-1.4
2023-02-05T09:26:35.921Z,-1.5
2023-02-05T09:27:42.949Z,-1.5
2023-02-05T09:28:50.077Z,-1.6
2023-02-05T09:29:57.176Z,-1.4
2023-02-05T09:31:04.465Z,-1.5
2023-02-05T09:32:11.568Z,-1.4
2023-02-05T09:33:18.942Z,-1.4
2023-02-05T09:34:26.025Z,-1.5
2023-02-05T09:35:33.551Z,-1.7
2023-02-05T09:36:40.269Z,-1.6
2023-02-05T09:37:47.462Z,-1.5
2023-02-05T09:39:02.106Z,-1.6
2023-02-05T09:40:19.884Z,-1.4
2023-02-05T09:41:09.319Z,-1.3
2023-02-05T09:42:16.456Z,-1.9
2023-02-05T09:43:26.479Z,-1.9
2023-02-05T09:44:43.910Z,-1.8
2023-02-05T09:45:59.091Z,-1.9
2023-02-05T09:47:14.479Z,-1.8
2023-02-05T09:48:24.619Z,-1.9
2023-02-05T09:49:42.373Z,-2
2023-02-05T09:50:58.095Z,-2
2023-02-05T09:52:04.804Z,-2.1
2023-02-05T09:53:17.095Z,-2
2023-02-05T09:54:24.506Z,-1.9
2023-02-05T09:55:35.067Z,-2.1
2023-02-05T09:56:44.883Z,-1.9
2023-02-05T09:57:52.077Z,-2.1
2023-02-05T09:58:59.070Z,-2
2023-02-05T10:00:06.391Z,-2
2023-02-05T10:01:24.199Z,-2
2023-02-05T10:02:36.826Z,-2.2
2023-02-05T10:03:43.874Z,-2.1
2023-02-05T10:04:53.527Z,-1.8
2023-02-05T10:06:00.654Z,-1.9
2023-02-05T10:07:12.945Z,-1.9
2023-02-05T10:08:20.414Z,-1.7
2023-02-05T10:09:30.674Z,-1.7
2023-02-05T10:10:45.888Z,-1.3
2023-02-05T10:11:53.046Z,-1.1
2023-02-05T10:13:02.781Z,-1
2023-02-05T10:14:22.378Z,-1.3
2023-02-05T10:15:37.581Z,-1.4
2023-02-05T10:16:50.812Z,-1.4
2023-02-05T10:18:11.935Z,-1.3
2023-02-05T10:19:31.997Z,-1.3
2023-02-05T10:20:51.813Z,-1.3
2023-02-05T10:22:05.185Z,-1.3
2023-02-05T10:23:24.306Z,-1.2
2023-02-05T10:24:44.941Z,-1.7
2023-02-05T10:26:00.881Z,-1.8
2023-02-05T10:27:16.118Z,-1.4
2023-02-05T10:28:31.127Z,-1.2
2023-02-05T10:29:48.396Z,-1.1
2023-02-05T10:31:00.327Z,-1.2
2023-02-05T10:32:14.832Z,-1.3
2023-02-05T10:33:31.008Z,-1.4
2023-02-05T10:34:50.480Z,-1.3
2023-02-05T10:36:03.948Z,-1.5
2023-02-05T10:37:14.199Z,-1.6
2023-02-05T10:38:25.778Z,-1.4
2023-02-05T10:39:37.314Z,-1.4
2023-02-05T10:40:49.488Z,-1.3
2023-02-05T10:41:59.616Z,-1.3
2023-02-05T10:43:13.840Z,-1.4
2023-02-05T10:44:29.377Z,-1.5
2023-02-05T10:45:44.775Z,-1.6
2023-02-05T10:46:53.667Z,-1.5
2023-02-05T10:48:07.870Z,-1.5
2023-02-05T10:49:27.966Z,-1.7
2023-02-05T10:50:42.154Z,-1.8
2023-02-05T10:52:02.312Z,-2
2023-02-05T10:53:11.960Z,-1.8
2023-02-05T10:54:21.664Z,-1.9
2023-02-05T10:55:33.925Z,-1.9
2023-02-05T10:56:44.593Z,-2
2023-02-05T10:57:55.084Z,-1.8
2023-02-05T10:59:04.089Z,-1.9
2023-02-05T11:00:14.867Z,-2.1
2023-02-05T11:01:24.339Z,-2.4
2023-02-05T11:02:41.118Z,-2.3
2023-02-05T11:03:51.334Z,-2.3
2023-02-05T11:05:03.403Z,-2.3
2023-02-05T11:06:21.953Z,-2.3
2023-02-05T11:07:33.859Z,-2.1
2023-02-05T11:08:53.247Z,-2.2
2023-02-05T11:10:02.322Z,-1.9
2023-02-05T11:11:18.279Z,-2
2023-02-05T11:12:28.878Z,-2
2023-02-05T11:13:40.239Z,-2.1
2023-02-05T11:14:49.571Z,-1.8
2023-02-05T11:16:03.788Z,-1.7
2023-02-05T11:17:14.437Z,-2.1
2023-02-05T11:18:27.475Z,-1.9
2023-02-05T11:19:40.772Z,-2.1
2023-02-05T11:21:04.417Z,-2.2
2023-02-05T11:22:13.406Z,-2.2
2023-02-05T11:23:23.658Z,-2.5
2023-02-05T11:24:36.010Z,-2.6
2023-02-05T11:25:46.186Z,-2.6
2023-02-05T11:27:00.854Z,-2.2
2023-02-05T11:28:22.712Z,-2
2023-02-05T11:29:37.400Z,-2.2
2023-02-05T11:30:51.003Z,-2.3
2023-02-05T11:31:56.647Z,-2
2023-02-05T11:33:07.146Z,-2.2
2023-02-05T11:34:22.185Z,-1.9
2023-02-05T11:35:33.245Z,-1.9
2023-02-05T11:36:43.998Z,-2.1
2023-02-05T11:37:56.799Z,-1.9
2023-02-05T11:39:13.194Z,-1.8
2023-02-05T11:40:32.839Z,-1.9
2023-02-05T11:41:44.433Z,-1.7
2023-02-05T11:43:01.982Z,-1.7
2023-02-05T11:44:12.331Z,-1.8
2023-02-05T11:45:25.302Z,-1.6
2023-02-05T11:46:35.825Z,-1.6
2023-02-05T11:47:48.159Z,-1.5
2023-02-05T11:48:59.888Z,-1.8
2023-02-05T11:50:10.575Z,-2.1
2023-02-05T11:51:30.627Z,-2.3
2023-02-05T11:52:46.986Z,-2.1
2023-02-05T11:53:58.158Z,-1.9
2023-02-05T11:55:09.504Z,-2
2023-02-05T11:56:29.547Z,-2.3
2023-02-05T11:57:38.610Z,-2.3
2023-02-05T11:58:50.482Z,-2.1
2023-02-05T12:00:03.398Z,-2.4
2023-02-05T12:01:17.508Z,-2.2
2023-02-05T12:02:31.257Z,-1.9
2023-02-05T12:03:43.426Z,-1.9
2023-02-05T12:04:52.169Z,-2.1
2023-02-05T12:06:09.789Z,-2.2
2023-02-05T12:07:22.750Z,-2.2
2023-02-05T12:08:32.287Z,-2.1
2023-02-05T12:09:51.846Z,-1.9
2023-02-05T12:10:59.938Z,-1.8
2023-02-05T12:12:16.078Z,-1.8
2023-02-05T12:13:36.049Z,-1.9
2023-02-05T12:14:51.548Z,-1.8
2023-02-05T12:16:09.326Z,-1.7
2023-02-05T12:17:25.104Z,-1.9
2023-02-05T12:18:41.436Z,-1.9
2023-02-05T12:19:49.729Z,-2.2
2023-02-05T12:21:07.786Z,-2
2023-02-05T12:22:26.486Z,-2.2
2023-02-05T12:23:35.449Z,-2.3
2023-02-05T12:24:56.321Z,-2
2023-02-05T12:26:15.266Z,-2
2023-02-05T12:27:28.145Z,-2.2
2023-02-05T12:28:45.411Z,-2.5
2023-02-05T12:30:04.249Z,-2.2
2023-02-05T12:31:21.753Z,-2.2
2023-02-05T12:32:43.720Z,-2.3
2023-02-05T12:33:57.563Z,-2.1
2023-02-05T12:35:13.860Z,-2.3
2023-02-05T12:36:30.004Z,-2.2
2023-02-05T12:37:46.906Z,-2
2023-02-05T12:39:03.190Z,-2.1
2023-02-05T12:40:23.066Z,-2
2023-02-05T12:41:42.726Z,-2
2023-02-05T12:42:56.402Z,-2.4
2023-02-05T12:44:10.030Z,-2.4
2023-02-05T12:45:25.037Z,-2.2
2023-02-05T12:46:44.505Z,-2.3
2023-02-05T12:47:58.575Z,-2.3
2023-02-05T12:49:17.806Z,-2.1
2023-02-05T12:50:32.567Z,-2.1
2023-02-05T12:51:49.947Z,-2.3
2023-02-05T12:53:06.868Z,-2.5
2023-02-05T12:54:20.851Z,-2.3
2023-02-05T12:55:40.590Z,-2.2
2023-02-05T12:56:56.867Z,-2.3
2023-02-05T12:58:10.640Z,-2.6
2023-02-05T12:59:22.439Z,-2.6
2023-02-05T13:00:41.676Z,-2.4
2023-02-05T13:01:57.205Z,-2.5
2023-02-05T13:03:16.408Z,-2.6
2023-02-05T13:04:30.854Z,-2.6
2023-02-05T13:05:48.132Z,-2.5
2023-02-05T13:07:07.192Z,-2.4
2023-02-05T13:08:22.406Z,-2.5
2023-02-05T13:09:38.143Z,-2.5
2023-02-05T13:10:50.927Z,-2.3
2023-02-05T13:12:04.610Z,-2.2
2023-02-05T13:13:12.385Z,-2.2
2023-02-05T13:14:20.481Z,-2.1
2023-02-05T13:15:30.615Z,-2
2023-02-05T13:16:39.135Z,-2.2
2023-02-05T13:17:52.024Z,-2.5
2023-02-05T13:19:09.719Z,-2.5
2023-02-05T13:20:29.648Z,-2.6
2023-02-05T13:21:46.914Z,-2.5
2023-02-05T13:22:59.710Z,-2.5
2023-02-05T13:24:12.337Z,-2.9
2023-02-05T13:25:37.712Z,-2.6
2023-02-05T13:26:42.936Z,-2.6
2023-02-05T13:27:55.329Z,-2.4
2023-02-05T13:29:15.707Z,-2.3
2023-02-05T13:30:22.726Z,-2.1
2023-02-05T13:31:31.007Z,-2.3
2023-02-05T13:32:40.629Z,-2.3
2023-02-05T13:33:50.336Z,-2.4
2023-02-05T13:35:01.639Z,-2.6
2023-02-05T13:36:10.082Z,-2.4
2023-02-05T13:37:21.445Z,-2.5
2023-02-05T13:38:39.118Z,-2.4
2023-02-05T13:39:56.294Z,-2.5
2023-02-05T13:41:13.949Z,-2.4
2023-02-05T13:42:21.372Z,-2.8
2023-02-05T13:43:40.258Z,-2.7
2023-02-05T13:44:53.384Z,-2.3
2023-02-05T13:46:07.857Z,-2.4
2023-02-05T13:47:15.088Z,-2.2
2023-02-05T13:48:29.896Z,-2.1
2023-02-05T13:49:48.576Z,-2
2023-02-05T13:51:01.440Z,-2.1
2023-02-05T13:52:17.892Z,-2.4
2023-02-05T13:53:37.888Z,-2.7
2023-02-05T13:54:55.559Z,-2.3
2023-02-05T13:56:09.363Z,-2.2
2023-02-05T13:57:24.567Z,-2
2023-02-05T13:58:43.261Z,-2
2023-02-05T13:59:57.627Z,-2.2
2023-02-05T14:01:05.546Z,-2.2
2023-02-05T14:02:24.790Z,-2.2
2023-02-05T14:03:44.159Z,-2.3
2023-02-05T14:04:57.590Z,-2.5
2023-02-05T14:06:05.011Z,-2.5
2023-02-05T14:07:17.851Z,-2.7
2023-02-05T14:08:29.621Z,-2.6
2023-02-05T14:09:37.742Z,-2.5
2023-02-05T14:10:45.167Z,-2.6
2023-02-05T14:11:52.800Z,-2.5
2023-02-05T14:13:00.420Z,-2.4
2023-02-05T14:14:14.305Z,-2.3
2023-02-05T14:15:22.113Z,-2.5
2023-02-05T14:16:29.122Z,-2.4
2023-02-05T14:17:37.029Z,-2.3
2023-02-05T14:18:47.958Z,-2.3
2023-02-05T14:20:03.170Z,-2.3
2023-02-05T14:21:21.788Z,-2.3
2023-02-05T14:22:34.152Z,-2.3
2023-02-05T14:23:44.392Z,-2.3
2023-02-05T14:24:53.308Z,-2.3
2023-02-05T14:26:00.877Z,-2.3
2023-02-05T14:27:08.856Z,-2.4
2023-02-05T14:28:25.248Z,-2.7
2023-02-05T14:29:33.646Z,-2.6
2023-02-05T14:30:42.114Z,-2.4
2023-02-05T14:31:55.709Z,-2.3
2023-02-05T14:33:04.914Z,-2.3
2023-02-05T14:34:23.322Z,-2.6
2023-02-05T14:35:30.850Z,-2.3
2023-02-05T14:36:38.679Z,-2.2
2023-02-05T14:37:46.809Z,-2.3
2023-02-05T14:38:55.589Z,-2.4
2023-02-05T14:40:06.415Z,-2.5
2023-02-05T14:41:24.348Z,-2.5
2023-02-05T14:42:35.710Z,-2.3
2023-02-05T14:43:44.091Z,-2.1
2023-02-05T14:45:03.294Z,-2.1
2023-02-05T14:46:13.536Z,-2
2023-02-05T14:47:24.548Z,-2.1
2023-02-05T14:48:31.947Z,-2.1
2023-02-05T14:49:39.706Z,-2.1
2023-02-05T14:50:49.462Z,-2
2023-02-05T14:52:07.112Z,-2
2023-02-05T14:53:25.445Z,-2
2023-02-05T14:54:33.164Z,-2
2023-02-05T14:55:41.841Z,-2.3
2023-02-05T14:56:50.494Z,-2.4
2023-02-05T14:57:58.772Z,-2.5
2023-02-05T14:59:12.457Z,-2.5
2023-02-05T15:00:27.017Z,-2.5
2023-02-05T15:01:40.087Z,-2.4
2023-02-05T15:02:48.187Z,-2.4
2023-02-05T15:04:01.788Z,-2.5
2023-02-05T15:05:09.970Z,-2.5
2023-02-05T15:06:17.451Z,-2.6
2023-02-05T15:07:25.573Z,-2.8
2023-02-05T15:08:33.834Z,-2.6
2023-02-05T15:09:46.629Z,-2.5
2023-02-05T15:11:06.448Z,-2.5
2023-02-05T15:12:19.451Z,-2.4
2023-02-05T15:13:34.846Z,-2.4
2023-02-05T15:14:43.272Z,-2.3
2023-02-05T15:15:56.393Z,-2.4
2023-02-05T15:17:11.986Z,-2.5
2023-02-05T15:18:20.016Z,-2.4
2023-02-05T15:19:32.443Z,-2.7
2023-02-05T15:20:49.891Z,-2.6
2023-02-05T15:21:57.228Z,-2.4
2023-02-05T15:23:04.641Z,-2.4
2023-02-05T15:24:20.263Z,-2.5
2023-02-05T15:25:27.266Z,-2.7
2023-02-05T15:26:45.344Z,-2.6
2023-02-05T15:28:01.265Z,-2.5
2023-02-05T15:29:17.197Z,-2.5
2023-02-05T15:30:34.513Z,-2.5
2023-02-05T15:31:47.641Z,-2.5
2023-02-05T15:32:57.438Z,-2.3
2023-02-05T15:34:06.562Z,-2.5
2023-02-05T15:35:25.014Z,-2.7
2023-02-05T15:36:32.248Z,-2.7
2023-02-05T15:37:41.570Z,-2.6
2023-02-05T15:38:49.732Z,-2.5
2023-02-05T15:39:57.764Z,-2.6
2023-02-05T15:41:14.954Z,-2.5
2023-02-05T15:42:22.557Z,-2.4
2023-02-05T15:43:32.963Z,-2.3
2023-02-05T15:44:42.175Z,-2.2
2023-02-05T15:45:49.674Z,-2.2
2023-02-05T15:47:02.193Z,-2.2
2023-02-05T15:48:11.207Z,-2.2
2023-02-05T15:49:18.244Z,-2.2
2023-02-05T15:50:26.888Z,-2.2
2023-02-05T15:51:34.916Z,-2.2
2023-02-05T15:52:42.190Z,-2.2